createdAt,value
2023-04-15T00:01:07.010Z,76.01
2023-04-15T00:03:34.581Z,77.11
2023-04-15T00:06:02.440Z,77.38
2023-04-15T00:08:30.137Z,77.61
2023-04-15T00:10:56.722Z,77.20
2023-04-15T00:13:23.711Z,76.14
2023-04-15T00:15:50.323Z,75.79
2023-04-15T00:18:16.925Z,76.67
2023-04-15T00:20:43.444Z,77.19
2023-04-15T00:23:09.987Z,76.47
2023-04-15T00:25:36.755Z,75.72
2023-04-15T00:28:04.083Z,77.05
2023-04-15T00:30:31.532Z,77.15
2023-04-15T00:32:58.300Z,77.05
2023-04-15T00:35:25.552Z,77.47
2023-04-15T00:37:52.179Z,76.76
2023-04-15T00:40:21.101Z,76.99
2023-04-15T00:42:48.151Z,77.41
2023-04-15T00:45:14.682Z,76.34
2023-04-15T00:47:43.221Z,76.15
2023-04-15T00:50:10.981Z,76.69
2023-04-15T00:52:37.794Z,76.57
2023-04-15T00:55:05.457Z,77.63
2023-04-15T00:57:32.314Z,76.85
2023-04-15T00:59:59.145Z,76.15
2023-04-15T01:02:25.955Z,75.86
2023-04-15T01:04:52.653Z,76.33
2023-04-15T01:07:19.546Z,76.88
2023-04-15T01:09:46.231Z,76.07
2023-04-15T01:12:15.523Z,77.45
2023-04-15T01:14:42.412Z,77.12
2023-04-15T01:17:09.259Z,77.30
2023-04-15T01:19:37.257Z,77.07
2023-04-15T01:22:04.184Z,78.09
2023-04-15T01:24:32.347Z,77.40
2023-04-15T01:26:59.424Z,76.99
2023-04-15T01:29:27.432Z,77.58
2023-04-15T01:31:56.041Z,77.16
2023-04-15T01:34:23.186Z,78.25
2023-04-15T01:36:49.766Z,78.33
2023-04-15T01:39:16.344Z,78.35
2023-04-15T01:41:42.961Z,77.61
2023-04-15T01:44:09.550Z,77.85
2023-04-15T01:46:37.097Z,76.88
2023-04-15T01:49:03.784Z,78.60
2023-04-15T01:51:30.347Z,78.65
2023-04-15T01:53:57.106Z,77.79
2023-04-15T01:56:25.459Z,78.31
2023-04-15T01:58:52.465Z,78.42
2023-04-15T02:01:20.084Z,77.37
2023-04-15T02:03:47.924Z,78.24
2023-04-15T02:06:14.971Z,77.29
2023-04-15T02:08:41.549Z,78.70
2023-04-15T02:11:08.438Z,77.86
2023-04-15T02:13:35.110Z,79.39
2023-04-15T02:16:01.890Z,77.69
2023-04-15T02:18:28.592Z,78.66
2023-04-15T02:20:57.339Z,78.40
2023-04-15T02:23:24.579Z,78.22
2023-04-15T02:25:53.831Z,79.14
2023-04-15T02:28:21.357Z,77.98
2023-04-15T02:30:50.979Z,78.47
2023-04-15T02:33:18.077Z,79.15
2023-04-15T02:35:45.490Z,79.01
2023-04-15T02:38:12.425Z,79.44
2023-04-15T02:40:39.036Z,78.38
2023-04-15T02:43:07.155Z,78.64
2023-04-15T02:45:34.021Z,78.31
2023-04-15T02:48:06.170Z,78.20
2023-04-15T02:50:33.054Z,79.21
2023-04-15T02:53:01.559Z,77.90
2023-04-15T02:55:28.990Z,79.98
2023-04-15T02:57:55.725Z,79.37
2023-04-15T03:00:22.619Z,78.81
2023-04-15T03:02:52.458Z,79.14
2023-04-15T03:05:19.247Z,79.82
2023-04-15T03:07:45.835Z,78.39
2023-04-15T03:10:12.524Z,78.50
2023-04-15T03:12:39.525Z,78.71
2023-04-15T03:15:06.894Z,79.40
2023-04-15T03:17:33.742Z,78.67
2023-04-15T03:20:02.867Z,79.39
2023-04-15T03:22:29.488Z,78.64
2023-04-15T03:24:56.212Z,79.69
2023-04-15T03:27:22.958Z,79.03
2023-04-15T03:29:49.739Z,79.02
2023-04-15T03:32:16.741Z,78.68
2023-04-15T03:34:43.722Z,79.96
2023-04-15T03:37:10.275Z,79.80
2023-04-15T03:39:36.939Z,79.03
2023-04-15T03:42:03.923Z,78.71
2023-04-15T03:44:30.721Z,79.88
2023-04-15T03:46:57.245Z,79.62
2023-04-15T03:49:24.585Z,80.26
2023-04-15T03:51:51.202Z,79.59
2023-04-15T03:54:17.748Z,80.58
2023-04-15T03:56:44.277Z,80.61
2023-04-15T03:59:11.467Z,79.87
2023-04-15T04:01:38.029Z,78.75
2023-04-15T04:04:04.712Z,80.25
2023-04-15T04:06:31.653Z,79.14
2023-04-15T04:08:58.183Z,79.19
2023-04-15T04:11:24.792Z,80.12
2023-04-15T04:13:51.312Z,79.62
2023-04-15T04:16:17.974Z,78.88
2023-04-15T04:18:44.595Z,80.29
2023-04-15T04:21:11.749Z,79.87
2023-04-15T04:23:38.357Z,79.66
2023-04-15T04:26:04.967Z,80.08
2023-04-15T04:28:31.604Z,79.98
2023-04-15T04:30:58.137Z,80.32
2023-04-15T04:33:24.733Z,79.54
2023-04-15T04:35:51.622Z,79.21
2023-04-15T04:38:18.234Z,79.82
2023-04-15T04:40:44.818Z,79.36
2023-04-15T04:43:11.359Z,80.42
2023-04-15T04:45:37.896Z,79.77
2023-04-15T04:48:07.247Z,79.38
2023-04-15T04:50:34.316Z,79.99
2023-04-15T04:53:01.578Z,80.34
2023-04-15T04:55:28.443Z,79.12
2023-04-15T04:57:54.961Z,79.16
2023-04-15T05:00:21.552Z,79.67
2023-04-15T05:02:48.565Z,79.69
2023-04-15T05:05:15.264Z,79.53
2023-04-15T05:07:42.199Z,80.11
2023-04-15T05:10:09.245Z,80.33
2023-04-15T05:12:37.497Z,80.64
2023-04-15T05:15:05.481Z,78.86
2023-04-15T05:17:33.300Z,79.89
2023-04-15T05:19:59.908Z,79.03
2023-04-15T05:22:26.611Z,80.61
2023-04-15T05:24:53.210Z,79.88
2023-04-15T05:27:19.749Z,79.39
2023-04-15T05:29:46.464Z,79.43
2023-04-15T05:32:13.033Z,80.16
2023-04-15T05:34:39.842Z,80.48
2023-04-15T05:37:06.546Z,80.30
2023-04-15T05:39:33.162Z,79.69
2023-04-15T05:42:00.284Z,79.45
2023-04-15T05:44:26.932Z,80.13
2023-04-15T05:46:53.496Z,79.46
2023-04-15T05:49:19.993Z,79.43
2023-04-15T05:51:47.982Z,79.36
2023-04-15T05:54:14.541Z,80.06
2023-04-15T05:56:41.222Z,80.10
2023-04-15T05:59:07.787Z,79.46
2023-04-15T06:01:34.969Z,78.39
2023-04-15T06:04:01.997Z,78.84
2023-04-15T06:06:28.640Z,79.14
2023-04-15T06:08:56.028Z,79.18
2023-04-15T06:11:22.616Z,79.93
2023-04-15T06:13:49.279Z,78.72
2023-04-15T06:16:15.955Z,79.00
2023-04-15T06:18:42.631Z,79.69
2023-04-15T06:21:09.180Z,79.65
2023-04-15T06:23:36.553Z,78.35
2023-04-15T06:26:03.778Z,78.93
2023-04-15T06:28:30.600Z,79.77
2023-04-15T06:30:57.329Z,78.29
2023-04-15T06:33:23.978Z,79.24
2023-04-15T06:35:51.005Z,79.72
2023-04-15T06:38:17.537Z,78.83
2023-04-15T06:40:44.283Z,79.31
2023-04-15T06:43:10.955Z,79.33
2023-04-15T06:45:37.535Z,79.67
2023-04-15T06:48:04.360Z,78.90
2023-04-15T06:50:30.970Z,77.87
2023-04-15T06:52:57.566Z,79.30
2023-04-15T06:55:24.122Z,79.39
2023-04-15T06:57:50.850Z,78.60
2023-04-15T07:00:17.805Z,78.25
2023-04-15T07:02:44.868Z,77.96
2023-04-15T07:05:11.499Z,78.92
2023-04-15T07:07:38.439Z,77.99
2023-04-15T07:10:05.618Z,78.77
2023-04-15T07:12:32.178Z,78.04
2023-04-15T07:14:58.744Z,78.00
2023-04-15T07:17:25.363Z,78.51
2023-04-15T07:19:52.144Z,77.15
2023-04-15T07:22:18.744Z,78.49
2023-04-15T07:24:46.229Z,77.43
2023-04-15T07:27:12.822Z,77.56
2023-04-15T07:29:39.389Z,78.35
2023-04-15T07:32:06.349Z,77.94
2023-04-15T07:34:33.053Z,78.33
2023-04-15T07:36:59.609Z,77.20
2023-04-15T07:39:26.486Z,77.83
2023-04-15T07:41:53.029Z,77.68
2023-04-15T07:44:19.554Z,77.17
2023-04-15T07:46:46.146Z,77.23
2023-04-15T07:49:13.501Z,76.87
2023-04-15T07:51:40.149Z,76.89
2023-04-15T07:54:06.683Z,77.33
2023-04-15T07:56:33.272Z,76.59
2023-04-15T07:59:02.411Z,77.02
2023-04-15T08:01:29.162Z,76.36
2023-04-15T08:03:55.996Z,76.24
2023-04-15T08:06:22.858Z,76.18
2023-04-15T08:08:49.405Z,76.60
2023-04-15T08:11:16.221Z,77.07
2023-04-15T08:13:42.853Z,76.28
2023-04-15T08:16:27.789Z,76.11
2023-04-15T08:18:56.448Z,76.79
2023-04-15T08:21:23.840Z,77.32
2023-04-15T08:23:52.486Z,76.87
2023-04-15T08:26:19.937Z,76.23
2023-04-15T08:28:46.968Z,76.02
2023-04-15T08:31:15.558Z,76.77
2023-04-15T08:33:42.649Z,76.30
2023-04-15T08:36:09.423Z,77.08
2023-04-15T08:38:36.519Z,76.03
2023-04-15T08:41:07.388Z,76.08
2023-04-15T08:43:35.927Z,76.46
2023-04-15T08:46:04.411Z,76.31
2023-04-15T08:48:33.588Z,76.65
2023-04-15T08:51:00.875Z,76.39
2023-04-15T08:53:29.634Z,76.44
2023-04-15T08:56:00.019Z,75.64
2023-04-15T08:58:26.779Z,76.17
2023-04-15T09:00:53.738Z,75.65
2023-04-15T09:03:21.931Z,75.85
2023-04-15T09:05:48.618Z,76.01
2023-04-15T09:08:15.762Z,76.02
2023-04-15T09:10:42.626Z,75.55
2023-04-15T09:13:09.510Z,75.48
2023-04-15T09:15:38.611Z,75.90
2023-04-15T09:18:06.047Z,75.52
2023-04-15T09:20:41.675Z,76.31
2023-04-15T09:23:17.533Z,75.55
2023-04-15T09:25:44.187Z,75.56
2023-04-15T09:28:11.411Z,75.56
2023-04-15T09:30:38.127Z,75.28
2023-04-15T09:33:08.348Z,74.82
2023-04-15T09:35:36.852Z,74.58
2023-04-15T09:38:07.358Z,74.31
2023-04-15T09:43:13.199Z,74.09
2023-04-15T09:45:47.047Z,73.74
2023-04-15T09:50:54.894Z,73.43
2023-04-15T09:53:23.675Z,73.21
2023-04-15T09:55:55.915Z,72.38
2023-04-15T09:58:24.625Z,72.46
2023-04-15T10:00:52.453Z,71.22
2023-04-15T10:03:21.989Z,71.27
2023-04-15T10:05:51.252Z,71.56
2023-04-15T10:08:21.900Z,71.49
2023-04-15T10:10:49.188Z,70.89
2023-04-15T10:13:18.909Z,70.32
2023-04-15T10:15:57.550Z,70.57
2023-04-15T10:18:27.771Z,71.23
2023-04-15T10:20:55.569Z,70.34
2023-04-15T10:23:23.366Z,70.55
2023-04-15T10:25:52.250Z,70.73
2023-04-15T10:28:20.548Z,69.73
2023-04-15T10:30:48.406Z,67.74
2023-04-15T10:33:17.204Z,68.05
2023-04-15T10:35:45.058Z,67.55
2023-04-15T10:41:31.258Z,66.89
2023-04-15T10:44:03.399Z,66.72
2023-04-15T10:46:40.205Z,67.11
2023-04-15T10:49:13.489Z,66.47
2023-04-15T10:51:43.569Z,66.22
2023-04-15T11:05:52.424Z,66.48
2023-04-15T11:08:39.173Z,66.17
2023-04-15T11:11:05.874Z,66.55
2023-04-15T11:13:33.217Z,65.57
2023-04-15T11:16:01.613Z,66.65
2023-04-15T11:18:30.766Z,65.01
2023-04-15T11:21:01.182Z,65.41
2023-04-15T11:23:39.790Z,65.07
2023-04-15T11:26:11.716Z,65.32
2023-04-15T11:28:41.156Z,65.23
2023-04-15T11:31:11.366Z,65.13
2023-04-15T11:33:39.389Z,65.31
2023-04-15T11:36:06.209Z,65.32
2023-04-15T11:38:34.434Z,65.24
2023-04-15T11:41:01.225Z,64.59
2023-04-15T11:43:27.850Z,64.95
2023-04-15T11:45:57.501Z,64.07
2023-04-15T11:48:26.699Z,63.58
2023-04-15T11:50:57.260Z,64.05
2023-04-15T11:53:24.863Z,64.42
2023-04-15T11:55:53.567Z,63.94
2023-04-15T11:58:25.345Z,63.84
2023-04-15T12:00:55.027Z,62.78
2023-04-15T12:06:20.082Z,63.30
2023-04-15T12:16:49.233Z,62.43
2023-04-15T12:19:23.479Z,62.14
2023-04-15T12:21:50.802Z,61.53
2023-04-15T12:24:22.891Z,60.60
2023-04-15T12:26:53.244Z,60.45
2023-04-15T12:29:21.258Z,60.02
2023-04-15T12:31:52.198Z,60.14
2023-04-15T12:34:26.158Z,60.06
2023-04-15T12:36:52.667Z,59.17
2023-04-15T12:39:23.239Z,59.07
2023-04-15T12:41:49.836Z,58.54
2023-04-15T12:44:16.398Z,59.21
2023-04-15T12:46:42.956Z,58.85
2023-04-15T12:49:09.932Z,58.98
2023-04-15T12:51:36.460Z,58.51
2023-04-15T12:54:03.768Z,57.83
2023-04-15T12:56:30.552Z,58.19
2023-04-15T12:58:57.471Z,57.04
2023-04-15T13:01:24.085Z,55.93
2023-04-15T13:03:51.274Z,56.72
2023-04-15T13:06:17.937Z,57.04
2023-04-15T13:08:57.185Z,57.48
2023-04-15T13:11:25.434Z,56.43
2023-04-15T13:13:53.060Z,55.49
2023-04-15T13:16:19.780Z,55.64
2023-04-15T13:18:46.631Z,55.23
2023-04-15T13:21:13.403Z,55.01
2023-04-15T13:23:41.971Z,55.43
2023-04-15T13:26:08.561Z,55.08
2023-04-15T13:28:35.338Z,54.46
2023-04-15T13:31:01.898Z,53.86
2023-04-15T13:33:28.620Z,54.20
2023-04-15T13:35:55.192Z,53.99
2023-04-15T13:38:21.728Z,53.52
2023-04-15T13:40:48.519Z,53.52
2023-04-15T13:43:15.138Z,54.42
2023-04-15T13:45:41.729Z,54.77
2023-04-15T13:48:08.317Z,53.75
2023-04-15T13:50:35.034Z,54.13
2023-04-15T13:53:01.791Z,54.35
2023-04-15T13:55:28.841Z,54.50
2023-04-15T13:57:56.883Z,54.68
2023-04-15T14:00:23.514Z,54.27
2023-04-15T14:02:50.177Z,54.59
2023-04-15T14:05:17.188Z,54.03
2023-04-15T14:07:43.827Z,53.75
2023-04-15T14:10:10.669Z,52.78
2023-04-15T14:12:37.244Z,53.82
2023-04-15T14:15:04.229Z,52.70
2023-04-15T14:17:30.818Z,53.59
2023-04-15T14:19:57.381Z,53.82
2023-04-15T14:22:24.022Z,53.34
2023-04-15T14:24:53.153Z,52.26
2023-04-15T14:27:19.819Z,52.76
2023-04-15T14:29:46.620Z,52.60
2023-04-15T14:32:14.087Z,51.94
2023-04-15T14:34:41.387Z,53.10
2023-04-15T14:37:08.042Z,51.89
2023-04-15T14:39:34.691Z,53.08
2023-04-15T14:42:01.334Z,52.42
2023-04-15T14:44:27.973Z,52.31
2023-04-15T14:46:54.948Z,52.97
2023-04-15T14:49:21.582Z,52.31
2023-04-15T14:51:48.201Z,52.51
2023-04-15T14:54:15.459Z,52.94
2023-04-15T14:56:42.026Z,52.85
2023-04-15T14:59:08.560Z,52.52
2023-04-15T15:01:35.317Z,52.19
2023-04-15T15:04:02.181Z,52.39
2023-04-15T15:06:28.795Z,51.62
2023-04-15T15:08:55.433Z,52.06
2023-04-15T15:11:21.969Z,51.47
2023-04-15T15:13:48.607Z,51.71
2023-04-15T15:16:15.288Z,51.55
2023-04-15T15:18:41.986Z,51.08
2023-04-15T15:21:09.537Z,51.76
2023-04-15T15:23:36.086Z,51.91
2023-04-15T15:26:02.688Z,51.39
2023-04-15T15:28:29.440Z,52.44
2023-04-15T15:30:56.332Z,51.79
2023-04-15T15:33:23.459Z,51.68
2023-04-15T15:35:50.918Z,52.46
2023-04-15T15:38:17.727Z,50.99
2023-04-15T15:40:44.504Z,51.55
2023-04-15T15:43:11.179Z,51.71
2023-04-15T15:45:37.807Z,51.25
2023-04-15T15:48:04.926Z,51.13
2023-04-15T15:50:31.846Z,50.77
2023-04-15T15:52:58.732Z,50.95
2023-04-15T15:55:27.134Z,50.58
2023-04-15T15:57:54.390Z,50.75
2023-04-15T16:00:21.418Z,51.12
2023-04-15T16:05:17.548Z,50.63
2023-04-15T16:07:44.181Z,50.10
2023-04-15T16:10:11.167Z,49.80
2023-04-15T16:12:37.748Z,49.64
2023-04-15T16:15:04.730Z,50.39
2023-04-15T16:17:31.315Z,49.48
2023-04-15T16:20:00.684Z,49.85
2023-04-15T16:22:27.877Z,48.74
2023-04-15T16:24:54.465Z,49.87
2023-04-15T16:27:21.126Z,49.22
2023-04-15T16:29:47.769Z,50.30
2023-04-15T16:32:14.468Z,49.68
2023-04-15T16:34:41.364Z,50.21
2023-04-15T16:37:08.036Z,49.72
2023-04-15T16:39:34.656Z,50.50
2023-04-15T16:42:02.467Z,50.13
2023-04-15T16:44:29.280Z,50.53
2023-04-15T16:46:56.382Z,49.98
2023-04-15T16:49:22.956Z,50.16
2023-04-15T16:51:49.487Z,50.11
2023-04-15T16:54:16.047Z,50.81
2023-04-15T16:56:42.676Z,50.91
2023-04-15T16:59:09.227Z,50.26
2023-04-15T17:01:36.125Z,49.95
2023-04-15T17:04:02.970Z,50.41
2023-04-15T17:06:30.710Z,50.24
2023-04-15T17:08:57.333Z,50.50
2023-04-15T17:11:23.967Z,50.35
2023-04-15T17:13:51.127Z,51.11
2023-04-15T17:16:17.801Z,50.69
2023-04-15T17:18:44.799Z,50.94
2023-04-15T17:21:11.441Z,51.17
2023-04-15T17:23:37.977Z,50.57
2023-04-15T17:26:04.545Z,50.74
2023-04-15T17:28:31.116Z,50.88
2023-04-15T17:30:57.700Z,50.91
2023-04-15T17:33:55.794Z,50.71
2023-04-15T17:36:11.407Z,51.34
2023-04-15T17:38:37.952Z,51.35
2023-04-15T17:41:04.904Z,50.79
2023-04-15T17:43:32.005Z,51.02
2023-04-15T17:45:58.837Z,51.14
2023-04-15T17:48:26.322Z,51.50
2023-04-15T17:50:52.856Z,51.51
2023-04-15T17:53:19.485Z,52.15
2023-04-15T17:55:46.554Z,52.04
2023-04-15T17:58:13.249Z,52.53
2023-04-15T18:00:39.846Z,51.84
2023-04-15T18:03:06.798Z,52.33
2023-04-15T18:05:33.840Z,52.51
2023-04-15T18:08:00.436Z,52.51
2023-04-15T18:10:26.986Z,52.54
2023-04-15T18:12:53.546Z,52.57
2023-04-15T18:15:20.145Z,52.81
2023-04-15T18:17:47.963Z,52.64
2023-04-15T18:20:14.728Z,52.26
2023-04-15T18:22:42.416Z,52.39
2023-04-15T18:25:09.192Z,52.92
2023-04-15T18:27:38.987Z,52.59
2023-04-15T18:30:07.704Z,53.09
2023-04-15T18:32:34.376Z,52.94
2023-04-15T18:35:01.115Z,53.28
2023-04-15T18:37:29.531Z,53.03
2023-04-15T18:39:56.248Z,52.78
2023-04-15T18:42:23.802Z,53.46
2023-04-15T18:44:51.323Z,53.00
2023-04-15T18:47:18.044Z,53.55
2023-04-15T18:49:44.822Z,52.99
2023-04-15T18:52:11.978Z,53.51
2023-04-15T18:54:38.593Z,53.62
2023-04-15T18:57:06.456Z,54.24
2023-04-15T18:59:33.639Z,53.84
2023-04-15T19:02:01.369Z,53.96
2023-04-15T19:04:29.490Z,54.08
2023-04-15T19:06:56.479Z,54.06
2023-04-15T19:09:23.069Z,54.14
2023-04-15T19:11:49.604Z,54.14
2023-04-15T19:14:17.433Z,54.09
2023-04-15T19:16:44.044Z,53.60
2023-04-15T19:19:10.703Z,53.80
2023-04-15T19:21:37.275Z,54.92
2023-04-15T19:24:03.974Z,54.72
2023-04-15T19:26:30.661Z,54.95
2023-04-15T19:28:58.953Z,54.27
2023-04-15T19:31:26.341Z,54.99
2023-04-15T19:33:53.040Z,54.68
2023-04-15T19:36:19.717Z,55.01
2023-04-15T19:38:46.253Z,54.54
2023-04-15T19:41:13.116Z,54.63
2023-04-15T19:43:39.660Z,54.41
2023-04-15T19:46:06.806Z,55.43
2023-04-15T19:48:33.406Z,55.54
2023-04-15T19:51:00.655Z,54.51
2023-04-15T19:53:27.234Z,55.57
2023-04-15T19:55:53.815Z,55.99
2023-04-15T19:58:20.396Z,55.57
2023-04-15T20:00:46.981Z,54.86
2023-04-15T20:03:13.858Z,55.14
2023-04-15T20:05:40.507Z,55.32
2023-04-15T20:08:07.092Z,56.21
2023-04-15T20:10:33.802Z,56.02
2023-04-15T20:13:00.504Z,56.30
2023-04-15T20:15:27.339Z,56.10
2023-04-15T20:17:53.975Z,56.53
2023-04-15T20:20:21.048Z,55.43
2023-04-15T20:22:47.863Z,55.96
2023-04-15T20:25:14.758Z,55.79
2023-04-15T20:27:41.341Z,56.81
2023-04-15T20:30:08.591Z,55.61
2023-04-15T20:32:36.020Z,56.00
2023-04-15T20:35:04.739Z,56.02
2023-04-15T20:37:33.399Z,56.25
2023-04-15T20:40:01.210Z,56.87
2023-04-15T20:42:27.984Z,56.68
2023-04-15T20:44:54.560Z,57.43
2023-04-15T20:47:21.273Z,56.91
2023-04-15T20:49:47.938Z,57.95
2023-04-15T20:52:14.554Z,57.89
2023-04-15T20:54:41.194Z,56.92
2023-04-15T20:57:07.786Z,57.45
2023-04-15T20:59:34.935Z,57.58
2023-04-15T21:02:02.065Z,57.61
2023-04-15T21:04:28.741Z,58.04
2023-04-15T21:06:55.552Z,57.36
2023-04-15T21:09:22.159Z,58.03
2023-04-15T21:14:19.254Z,58.12
2023-04-15T21:16:46.101Z,58.91
2023-04-15T21:19:12.760Z,58.55
2023-04-15T21:21:39.417Z,58.88
2023-04-15T21:24:07.824Z,59.17
2023-04-15T21:26:36.064Z,58.24
2023-04-15T21:29:03.144Z,58.59
2023-04-15T21:31:29.917Z,58.45
2023-04-15T21:33:56.669Z,58.48
2023-04-15T21:36:23.294Z,58.86
2023-04-15T21:38:49.912Z,58.93
2023-04-15T21:41:16.508Z,59.44
2023-04-15T21:43:43.115Z,59.13
2023-04-15T21:46:22.129Z,59.35
2023-04-15T21:48:53.522Z,59.62
2023-04-15T21:51:20.483Z,59.65
2023-04-15T21:53:47.048Z,59.92
2023-04-15T21:56:14.007Z,59.86
2023-04-15T21:58:40.659Z,59.99
2023-04-15T22:01:07.255Z,59.98
2023-04-15T22:03:35.125Z,59.27
2023-04-15T22:06:03.664Z,60.21
2023-04-15T22:08:38.634Z,59.98
2023-04-15T22:11:08.677Z,59.80
2023-04-15T22:13:35.781Z,60.09
2023-04-15T22:16:02.805Z,59.58
2023-04-15T22:18:29.318Z,60.31
2023-04-15T22:20:56.389Z,60.03
2023-04-15T22:23:22.917Z,60.36
2023-04-15T22:25:49.488Z,60.14
2023-04-15T22:28:16.134Z,60.26
2023-04-15T22:30:43.478Z,60.56
2023-04-15T22:33:10.349Z,60.21
2023-04-15T22:35:37.504Z,60.70
2023-04-15T22:38:05.054Z,60.90
2023-04-15T22:40:31.893Z,61.38
2023-04-15T22:42:58.893Z,60.79
2023-04-15T22:45:26.028Z,60.83
2023-04-15T22:47:53.133Z,61.40
2023-04-15T22:50:20.328Z,61.03
2023-04-15T22:52:48.424Z,60.97
2023-04-15T22:55:15.109Z,61.15
2023-04-15T22:57:42.099Z,61.30
2023-04-15T23:00:09.816Z,61.92
2023-04-15T23:02:36.948Z,61.05
2023-04-15T23:05:11.803Z,61.36
2023-04-15T23:07:40.435Z,61.54
2023-04-15T23:10:08.234Z,62.00
2023-04-15T23:12:34.962Z,61.71
2023-04-15T23:15:01.686Z,61.91
2023-04-15T23:17:28.288Z,61.55
2023-04-15T23:19:54.842Z,61.53
2023-04-15T23:22:21.403Z,61.91
2023-04-15T23:24:47.957Z,62.09
2023-04-15T23:27:14.529Z,61.89
2023-04-15T23:29:41.088Z,61.95
2023-04-15T23:32:07.686Z,62.08
2023-04-15T23:34:34.204Z,62.26
2023-04-15T23:37:00.959Z,62.07
2023-04-15T23:39:27.530Z,62.57
2023-04-15T23:41:54.157Z,62.51
2023-04-15T23:44:20.725Z,62.62
2023-04-15T23:46:47.293Z,61.84
2023-04-15T23:49:13.882Z,62.44
2023-04-15T23:51:41.030Z,62.33
2023-04-15T23:54:07.572Z,62.39
2023-04-15T23:56:34.109Z,62.91
2023-04-15T23:59:00.868Z,62.71
